Time;durP1;ratioP1;P1;durP2;ratioP2;P2;SDS_P1;SDS_P2;PMS_P1;PMS_P2;Temp;Humidity;BMP_temperature;BMP_pressure;BME280_temperature;BME280_humidity;BME280_pressure;Samples;Min_cycle;Max_cycle;Signal;HPM_P1;HPM_P2
2023/02/03 00:00:27;;;;;;;11.80;7.85;;;;;;;-1.41;89.07;96394.94;5066465;28;20349;-64
2023/02/03 00:02:53;;;;;;;14.90;7.45;;;;;;;-1.27;87.92;96403.75;5065132;28;20072;-62
2023/02/03 00:05:18;;;;;;;11.65;7.82;;;;;;;-0.98;86.91;96391.69;5069922;28;20397;-62
2023/02/03 00:07:44;;;;;;;12.52;7.90;;;;;;;-1.03;86.93;96405.94;5070491;28;20033;-76
2023/02/03 00:10:09;;;;;;;14.90;6.70;;;;;;;-1.06;87.41;96391.28;5066066;28;20502;-76
2023/02/03 00:12:35;;;;;;;13.38;7.95;;;;;;;-1.03;87.52;96385.03;5051933;28;20325;-75
2023/02/03 00:15:00;;;;;;;11.80;8.68;;;;;;;-1.00;86.45;96390.94;5072577;28;20047;-77
2023/02/03 00:17:26;;;;;;;12.52;6.80;;;;;;;-0.80;85.82;96380.31;5070406;28;20088;-77
2023/02/03 00:19:51;;;;;;;11.13;7.22;;;;;;;-0.85;86.20;96368.34;5057932;28;20059;-76
2023/02/03 00:22:16;;;;;;;10.07;6.55;;;;;;;-0.75;84.96;96346.91;5055236;28;20573;-75
2023/02/03 00:24:42;;;;;;;15.35;8.23;;;;;;;-0.53;84.34;96351.72;5074090;28;20078;-76
2023/02/03 00:27:07;;;;;;;11.88;7.85;;;;;;;-0.57;83.81;96335.34;5070885;28;20037;-75
2023/02/03 00:29:33;;;;;;;11.60;6.57;;;;;;;-0.52;83.80;96316.75;5073083;28;20587;-75
2023/02/03 00:31:58;;;;;;;12.18;6.60;;;;;;;-0.35;82.33;96312.28;5062194;28;20116;-78
2023/02/03 00:34:30;;;;;;;13.02;7.13;;;;;;;-0.73;84.68;96317.09;5069585;28;20083;-76
2023/02/03 00:36:55;;;;;;;13.98;7.45;;;;;;;-0.71;84.50;96324.88;5067063;28;20085;-78
2023/02/03 00:39:21;;;;;;;11.38;7.80;;;;;;;-1.02;85.61;96332.66;5053355;28;20584;-75
2023/02/03 00:41:46;;;;;;;11.32;6.53;;;;;;;-0.75;84.67;96316.34;5073014;28;20129;-77
2023/02/03 00:44:13;;;;;;;11.38;7.57;;;;;;;-0.95;85.00;96315.72;5068930;28;20558;-76
2023/02/03 00:46:38;;;;;;;13.93;7.05;;;;;;;-0.47;82.65;96295.56;5066688;28;20081;-77
2023/02/03 00:49:04;;;;;;;9.45;6.25;;;;;;;-0.35;82.43;96286.97;5070098;28;20082;-76
2023/02/03 00:51:29;;;;;;;10.95;7.07;;;;;;;-0.69;83.28;96289.00;5072510;28;20032;-77
2023/02/03 00:53:55;;;;;;;7.80;5.85;;;;;;;-0.80;84.67;96287.00;5072552;28;20024;-75
2023/02/03 00:56:20;;;;;;;11.43;6.47;;;;;;;-0.49;82.26;96277.34;5069632;28;20071;-77
2023/02/03 00:58:46;;;;;;;11.10;6.45;;;;;;;-0.57;83.10;96292.66;5069481;28;20058;-74
2023/02/03 01:01:11;;;;;;;12.10;5.50;;;;;;;-0.40;82.76;96299.50;5057265;28;20039;-75
2023/02/03 01:03:36;;;;;;;10.15;5.88;;;;;;;-0.48;82.34;96294.72;5063907;28;20047;-77
2023/02/03 01:06:13;;;;;;;9.45;5.50;;;;;;;0.04;80.56;96282.00;5054665;28;20297;-77
2023/02/03 01:08:38;;;;;;;9.57;5.82;;;;;;;0.03;79.91;96282.94;5054497;28;20563;-75
2023/02/03 01:11:12;;;;;;;6.82;4.82;;;;;;;-0.05;80.17;96291.28;5068747;28;20071;-76
2023/02/03 01:13:37;;;;;;;9.18;5.40;;;;;;;-0.25;81.13;96291.63;5067295;28;20153;-77
2023/02/03 01:16:06;;;;;;;12.25;5.80;;;;;;;-0.46;82.04;96285.00;5055689;28;20607;-78
2023/02/03 01:18:31;;;;;;;6.88;4.63;;;;;;;0.01;80.87;96283.97;5071315;28;20503;-76
2023/02/03 01:20:57;;;;;;;7.55;4.97;;;;;;;-0.22;81.82;96281.84;5069727;28;20029;-76
2023/02/03 01:23:22;;;;;;;5.80;4.53;;;;;;;-0.68;83.64;96280.19;5060526;28;20078;-75
2023/02/03 01:25:47;;;;;;;9.02;5.88;;;;;;;-0.91;84.38;96282.44;5071639;28;20027;-75
2023/02/03 01:28:13;;;;;;;8.88;5.30;;;;;;;-0.84;85.33;96286.34;5069759;28;20082;-76
2023/02/03 01:30:38;;;;;;;8.77;5.55;;;;;;;-0.86;84.82;96275.13;5074125;28;20037;-75
2023/02/03 01:33:04;;;;;;;7.93;5.43;;;;;;;-0.74;84.74;96294.47;5063645;28;20071;-75
2023/02/03 01:35:29;;;;;;;9.80;5.78;;;;;;;-0.87;84.70;96280.47;5053433;28;20028;-76
2023/02/03 01:37:55;;;;;;;11.20;6.15;;;;;;;-0.75;84.38;96276.28;5069820;28;20027;-75
2023/02/03 01:40:20;;;;;;;12.55;6.53;;;;;;;-0.80;84.63;96280.94;5067708;28;20053;-77
2023/02/03 01:42:45;;;;;;;8.85;4.75;;;;;;;-0.47;83.54;96285.09;5064133;28;20671;-77
2023/02/03 01:45:11;;;;;;;8.50;4.80;;;;;;;-0.82;85.32;96283.63;5067939;28;20037;-75
2023/02/03 01:47:45;;;;;;;5.93;4.63;;;;;;;-0.57;83.92;96287.44;5067418;28;20032;-75
2023/02/03 01:50:18;;;;;;;11.93;5.93;;;;;;;-0.80;84.60;96291.38;5059439;28;20125;-76
2023/02/03 01:52:46;;;;;;;7.78;5.13;;;;;;;-1.12;85.82;96300.16;5064305;28;20055;-76
2023/02/03 01:55:18;;;;;;;7.78;5.07;;;;;;;-0.77;84.72;96305.16;5053038;28;20554;-76
2023/02/03 01:57:51;;;;;;;10.55;4.97;;;;;;;-0.68;84.07;96288.03;5059811;28;20047;-77
2023/02/03 02:00:17;;;;;;;10.82;5.07;;;;;;;-0.61;83.57;96292.00;5049396;28;20028;-76
2023/02/03 02:02:43;;;;;;;9.88;4.18;;;;;;;-0.37;82.55;96299.28;5043449;28;20095;-75
2023/02/03 02:05:19;;;;;;;11.82;4.93;;;;;;;-0.50;82.50;96301.84;5065488;28;20073;-75
2023/02/03 02:07:44;;;;;;;8.32;4.85;;;;;;;-0.56;83.40;96291.72;5049541;28;20148;-75
2023/02/03 02:10:10;;;;;;;12.05;5.30;;;;;;;-0.47;81.95;96278.06;5068042;28;20626;-76
2023/02/03 02:12:35;;;;;;;11.18;5.03;;;;;;;-0.60;83.18;96285.81;5063177;28;20060;-76
2023/02/03 02:15:01;;;;;;;10.85;5.07;;;;;;;-0.45;82.69;96289.31;5030655;28;20436;-75
2023/02/03 02:17:40;;;;;;;8.57;4.22;;;;;;;-0.82;84.12;96294.09;5050248;28;20032;-75
2023/02/03 02:20:24;;;;;;;;;;;;;;;-0.91;84.32;96303.34;5062919;28;20147;-75
2023/02/03 02:23:21;;;;;;;7.93;4.13;;;;;;;-0.69;84.11;96304.69;5067739;28;20072;-76
2023/02/03 02:26:00;;;;;;;10.77;4.82;;;;;;;-0.96;84.75;96305.34;5045397;28;20085;-75
2023/02/03 02:28:37;;;;;;;9.75;4.57;;;;;;;-1.07;85.00;96313.78;5061777;28;20109;-75
2023/02/03 02:31:38;;;;;;;9.52;4.65;;;;;;;-1.07;84.89;96313.78;5068119;28;20069;-75
2023/02/03 02:34:23;;;;;;;10.35;4.30;;;;;;;-0.84;83.49;96291.56;5047584;28;20131;-75
2023/02/03 02:37:12;;;;;;;9.68;4.63;;;;;;;-0.82;83.84;96289.72;5071666;28;20119;-75
2023/02/03 02:39:59;;;;;;;7.85;4.05;;;;;;;-0.78;84.35;96282.53;5068020;28;20732;-75
2023/02/03 02:42:42;;;;;;;8.18;3.88;;;;;;;-0.49;82.30;96292.19;5065469;28;20108;-75
2023/02/03 02:45:11;;;;;;;8.48;4.45;;;;;;;-0.38;81.44;96287.16;5057685;28;20086;-75
2023/02/03 02:47:36;;;;;;;;;;;;;;;-0.58;82.28;96291.81;5048356;28;20069;-75
2023/02/03 02:50:05;;;;;;;7.03;3.67;;;;;;;-0.67;82.86;96291.50;5081256;28;19932;-75
2023/02/03 02:52:31;;;;;;;10.00;4.33;;;;;;;-0.65;82.39;96289.66;5069888;28;20558;-75
2023/02/03 02:54:59;;;;;;;12.30;4.20;;;;;;;-0.85;82.88;96291.66;5052577;28;20364;-75
2023/02/03 02:57:25;;;;;;;6.65;3.60;;;;;;;-0.76;82.99;96280.66;5065834;28;20044;-75
2023/02/03 02:59:50;;;;;;;7.03;3.55;;;;;;;-0.49;82.08;96274.72;5041968;28;20070;-75
2023/02/03 03:02:16;;;;;;;7.00;4.10;;;;;;;-0.60;81.72;96295.47;5074261;28;20456;-76
2023/02/03 03:04:41;;;;;;;2.53;2.28;;;;;;;-0.82;83.56;96274.03;5066912;28;20062;-75
2023/02/03 03:07:19;;;;;;;6.97;3.55;;;;;;;-0.57;82.67;96267.31;5066045;28;20035;-75
2023/02/03 03:09:49;;;;;;;7.68;3.97;;;;;;;-0.87;82.55;96277.84;5067715;28;20063;-75
2023/02/03 03:12:29;;;;;;;11.95;4.10;;;;;;;-0.91;82.82;96274.56;5045299;28;20159;-76
2023/02/03 03:15:00;;;;;;;9.68;4.38;;;;;;;-0.94;83.75;96259.06;5054397;28;20090;-75
2023/02/03 03:17:29;;;;;;;6.05;3.83;;;;;;;-0.52;81.98;96261.81;5073445;28;20223;-75
2023/02/03 03:19:55;;;;;;;6.28;3.67;;;;;;;-0.40;80.87;96264.63;5054298;28;20796;-75
2023/02/03 03:22:24;;;;;;;8.48;4.30;;;;;;;-0.83;82.48;96267.13;5053944;28;20496;-76
2023/02/03 03:24:59;;;;;;;8.30;3.72;;;;;;;-0.61;82.10;96265.84;5053731;28;20079;-75
2023/02/03 03:27:28;;;;;;;7.32;3.65;;;;;;;-0.75;82.50;96279.72;5045542;28;20522;-75
2023/02/03 03:30:01;;;;;;;6.80;3.78;;;;;;;-0.68;81.75;96253.22;5050687;28;20043;-75
2023/02/03 03:32:29;;;;;;;7.15;3.65;;;;;;;-0.72;81.96;96242.09;5053589;28;20552;-76
2023/02/03 03:34:54;;;;;;;5.78;3.70;;;;;;;-0.73;82.74;96232.56;5072409;28;20115;-75
2023/02/03 03:37:41;;;;;;;10.43;3.92;;;;;;;-0.68;81.21;96240.97;5066974;28;20706;-75
2023/02/03 03:40:09;;;;;;;8.55;3.63;;;;;;;-0.58;81.51;96231.66;5077266;28;20315;-75
2023/02/03 03:42:40;;;;;;;4.68;2.95;;;;;;;-0.68;81.40;96222.66;5068745;28;20056;-75
2023/02/03 03:45:08;;;;;;;6.80;3.40;;;;;;;-0.88;81.70;96236.94;5068067;28;20162;-76
2023/02/03 03:47:47;;;;;;;10.55;3.30;;;;;;;-0.66;80.67;96257.44;5061633;28;20082;-75
2023/02/03 03:50:16;;;;;;;7.15;3.13;;;;;;;-0.73;80.21;96270.03;5057875;28;20447;-76
2023/02/03 03:52:42;;;;;;;7.20;3.10;;;;;;;-0.91;81.58;96260.66;5060999;28;20088;-75
2023/02/03 03:55:08;;;;;;;7.05;3.30;;;;;;;-1.08;81.88;96267.69;5052753;28;20040;-75
2023/02/03 03:57:52;;;;;;;7.65;2.70;;;;;;;-0.91;81.58;96258.91;5053103;28;20098;-75
2023/02/03 04:00:18;;;;;;;6.43;3.05;;;;;;;-0.71;80.84;96262.94;5056365;28;20432;-76
2023/02/03 04:02:45;;;;;;;5.82;2.92;;;;;;;-0.71;80.38;96251.63;5054296;28;20085;-76
2023/02/03 04:05:10;;;;;;;4.43;2.55;;;;;;;-0.68;80.39;96269.75;5054795;28;20072;-75
2023/02/03 04:07:46;;;;;;;5.00;2.90;;;;;;;-0.75;80.02;96274.50;5072486;28;20070;-76
2023/02/03 04:10:49;;;;;;;7.78;3.10;;;;;;;-0.73;80.41;96253.50;5058849;28;20512;-76
2023/02/03 04:13:18;;;;;;;7.97;2.80;;;;;;;-0.64;80.68;96259.94;5006513;28;20071;-76
2023/02/03 04:15:44;;;;;;;6.00;2.95;;;;;;;-0.93;82.01;96252.91;5060081;28;20064;-76
2023/02/03 04:18:11;;;;;;;6.57;2.70;;;;;;;-0.75;80.78;96277.13;5072069;28;20038;-76
2023/02/03 04:20:36;;;;;;;5.47;2.65;;;;;;;-0.71;80.79;96238.56;5071821;28;20791;-76
2023/02/03 04:23:01;;;;;;;8.48;3.08;;;;;;;-0.65;80.37;96234.75;5069303;28;20060;-76
2023/02/03 04:25:27;;;;;;;4.40;2.63;;;;;;;-0.83;80.85;96242.75;5077830;28;20818;-75
2023/02/03 04:27:53;;;;;;;7.65;3.30;;;;;;;-1.01;81.07;96286.47;5067998;28;20075;-75
2023/02/03 04:30:18;;;;;;;5.05;3.03;;;;;;;-0.90;81.64;96273.63;5070408;28;20058;-76
2023/02/03 04:32:44;;;;;;;11.25;2.97;;;;;;;-0.92;81.00;96272.88;5069569;28;20402;-75
2023/02/03 04:35:10;;;;;;;8.45;3.33;;;;;;;-1.19;82.14;96236.09;5067741;28;20047;-75
2023/02/03 04:37:35;;;;;;;8.50;3.25;;;;;;;-0.69;80.45;96234.06;5062552;28;20062;-75
2023/02/03 04:40:00;;;;;;;5.55;3.10;;;;;;;-0.64;80.05;96255.53;5063839;28;20078;-76
2023/02/03 04:42:26;;;;;;;9.10;3.75;;;;;;;-1.00;80.79;96262.84;5065470;28;20052;-76
2023/02/03 04:44:51;;;;;;;7.20;3.60;;;;;;;-0.75;79.94;96240.50;5066892;28;20101;-75
2023/02/03 04:47:17;;;;;;;7.25;3.00;;;;;;;-0.36;78.34;96247.81;5071038;28;20038;-76
2023/02/03 04:49:42;;;;;;;5.55;3.17;;;;;;;-0.66;79.22;96246.97;5051436;28;20055;-76
2023/02/03 04:52:08;;;;;;;5.20;2.53;;;;;;;-0.41;78.09;96232.38;5057771;28;20403;-75
2023/02/03 04:54:33;;;;;;;4.78;2.72;;;;;;;-0.74;79.51;96238.75;5067959;28;20113;-76
2023/02/03 04:56:59;;;;;;;7.68;3.17;;;;;;;-0.43;78.77;96224.63;5071873;28;20406;-76
2023/02/03 04:59:24;;;;;;;5.97;3.22;;;;;;;-0.21;77.06;96236.41;5074245;28;20405;-76
2023/02/03 05:01:50;;;;;;;12.52;3.40;;;;;;;-0.36;78.18;96224.25;5057844;28;20349;-75
2023/02/03 05:04:15;;;;;;;7.85;3.13;;;;;;;-0.57;78.78;96229.88;5073118;28;20078;-75
2023/02/03 05:06:41;;;;;;;7.75;3.88;;;;;;;-0.72;78.63;96236.84;5051574;28;20042;-76
2023/02/03 05:09:06;;;;;;;5.78;2.90;;;;;;;-0.32;77.42;96231.00;5073065;28;20067;-76
2023/02/03 05:11:31;;;;;;;7.15;3.17;;;;;;;-0.34;77.29;96223.22;5071980;28;20412;-76
2023/02/03 05:13:57;;;;;;;8.27;3.42;;;;;;;-0.49;77.78;96234.63;5072242;28;20104;-76
2023/02/03 05:16:25;;;;;;;6.22;3.05;;;;;;;-0.46;78.10;96227.47;5059735;28;20488;-75
2023/02/03 05:18:51;;;;;;;6.18;3.13;;;;;;;-0.40;78.03;96223.63;5071548;28;20062;-75
2023/02/03 05:21:16;;;;;;;8.85;3.25;;;;;;;-0.43;77.40;96227.25;5067279;28;20444;-75
2023/02/03 05:23:41;;;;;;;4.70;3.10;;;;;;;-0.08;76.46;96230.41;5072662;28;20081;-75
2023/02/03 05:26:07;;;;;;;8.90;3.30;;;;;;;-0.26;76.01;96246.31;5070364;28;20447;-75
2023/02/03 05:28:32;;;;;;;5.13;2.58;;;;;;;-0.57;77.49;96230.69;5067892;28;20081;-75
2023/02/03 05:30:58;;;;;;;7.32;2.90;;;;;;;0.00;75.44;96236.00;5068969;28;20284;-75
2023/02/03 05:33:24;;;;;;;5.07;2.97;;;;;;;-0.13;75.34;96227.22;5059769;28;20286;-76
2023/02/03 05:35:49;;;;;;;6.22;3.15;;;;;;;-0.31;76.50;96228.28;5070816;28;20086;-75
2023/02/03 05:38:14;;;;;;;4.72;2.90;;;;;;;-0.01;75.27;96257.88;5076587;28;20077;-75
2023/02/03 05:43:24;;;;;;;5.55;2.78;;;;;;;-0.04;74.69;96229.25;5066343;28;20605;-76
2023/02/03 05:45:49;;;;;;;3.03;2.53;;;;;;;-0.41;76.70;96224.53;5070854;28;20040;-75
2023/02/03 05:48:15;;;;;;;6.25;2.83;;;;;;;-0.37;76.02;96238.28;5064126;28;20160;-75
2023/02/03 05:50:40;;;;;;;6.78;2.33;;;;;;;0.21;73.50;96246.06;5070990;28;20050;-76
2023/02/03 05:53:06;;;;;;;4.32;2.47;;;;;;;-0.20;75.10;96232.03;5068252;28;20071;-76
2023/02/03 05:55:31;;;;;;;9.20;2.72;;;;;;;-0.04;74.36;96221.41;5071197;28;20048;-76
2023/02/03 05:57:57;;;;;;;6.47;3.00;;;;;;;-0.19;74.52;96221.44;5051575;28;20051;-76
2023/02/03 06:00:22;;;;;;;5.97;2.60;;;;;;;-0.16;74.94;96215.19;5067837;28;20081;-76
2023/02/03 06:02:52;;;;;;;4.97;2.70;;;;;;;-0.36;74.48;96222.50;5062056;28;20075;-76
2023/02/03 06:05:17;;;;;;;4.68;2.65;;;;;;;-0.21;74.94;96210.22;5062226;28;20170;-76
2023/02/03 06:07:43;;;;;;;7.15;2.80;;;;;;;-0.45;75.33;96223.91;5070007;28;20560;-76
2023/02/03 06:10:09;;;;;;;5.03;2.70;;;;;;;-0.66;76.66;96212.97;5067893;28;20527;-76
2023/02/03 06:12:34;;;;;;;4.78;2.50;;;;;;;-0.66;76.74;96210.34;5070523;28;20096;-76
2023/02/03 06:14:59;;;;;;;5.95;2.80;;;;;;;-0.80;77.06;96226.03;5071419;28;20120;-76
2023/02/03 06:17:25;;;;;;;2.22;1.67;;;;;;;-0.48;75.77;96221.47;5069006;28;20467;-76
2023/02/03 06:19:50;;;;;;;11.43;4.13;;;;;;;-0.73;75.95;96250.88;5068844;28;20370;-76
2023/02/03 06:22:16;;;;;;;10.63;3.03;;;;;;;-0.50;76.00;96230.34;5068258;28;20072;-76
2023/02/03 06:24:43;;;;;;;5.18;2.33;;;;;;;-0.45;75.56;96230.91;5067879;28;20483;-76
2023/02/03 06:27:09;;;;;;;9.50;3.03;;;;;;;-0.61;75.94;96223.16;5067979;28;20511;-76
2023/02/03 06:29:34;;;;;;;7.95;3.28;;;;;;;-0.45;75.25;96216.03;5066881;28;20080;-76
2023/02/03 06:31:59;;;;;;;6.40;2.50;;;;;;;-0.49;75.69;96235.47;5068589;28;20096;-76
2023/02/03 06:34:25;;;;;;;7.57;2.58;;;;;;;-0.55;75.67;96235.84;5068453;28;20080;-76
2023/02/03 06:36:50;;;;;;;9.00;3.20;;;;;;;-0.97;77.66;96233.94;5069861;28;20086;-76
2023/02/03 06:39:16;;;;;;;4.78;2.90;;;;;;;-0.99;77.61;96225.31;5063254;28;20076;-76
2023/02/03 06:41:41;;;;;;;8.95;2.78;;;;;;;-0.95;77.95;96239.06;5072433;28;20542;-76
2023/02/03 06:44:06;;;;;;;5.85;2.47;;;;;;;-0.44;76.35;96235.19;5068608;28;20431;-76
2023/02/03 06:46:32;;;;;;;8.48;2.90;;;;;;;-0.55;75.96;96228.00;5076175;28;20429;-76
2023/02/03 06:48:58;;;;;;;6.45;2.40;;;;;;;-0.28;75.49;96232.47;5069675;28;20094;-76
2023/02/03 06:51:23;;;;;;;7.35;2.78;;;;;;;-0.68;76.75;96246.19;5074163;28;20051;-76
2023/02/03 06:53:49;;;;;;;5.22;2.72;;;;;;;-0.78;77.59;96239.84;5071076;28;20057;-76
2023/02/03 06:56:14;;;;;;;6.15;2.60;;;;;;;-0.43;76.66;96234.28;5072798;28;20504;-76
2023/02/03 06:58:40;;;;;;;7.30;2.72;;;;;;;-0.45;76.23;96229.13;5068495;28;20104;-76
2023/02/03 07:01:05;;;;;;;4.35;2.20;;;;;;;-0.38;75.72;96220.88;5069846;28;20072;-76
2023/02/03 07:03:31;;;;;;;5.30;2.15;;;;;;;-0.57;75.68;96242.97;5074534;28;20056;-76
2023/02/03 07:05:56;;;;;;;4.18;2.22;;;;;;;-0.65;76.55;96255.66;5071625;28;20067;-76
2023/02/03 07:08:21;;;;;;;5.00;2.10;;;;;;;-0.65;76.89;96213.81;5068789;28;20073;-76
2023/02/03 07:10:47;;;;;;;6.20;2.53;;;;;;;-0.67;75.67;96234.81;5072964;28;20058;-76
2023/02/03 07:13:12;;;;;;;5.50;2.20;;;;;;;-0.64;76.19;96241.66;5072731;28;20093;-76
2023/02/03 07:15:38;;;;;;;6.88;2.20;;;;;;;-0.38;74.84;96234.81;5071545;28;20143;-76
2023/02/03 07:18:03;;;;;;;7.65;2.38;;;;;;;-0.22;74.24;96232.09;5051891;28;20140;-76
2023/02/03 07:20:28;;;;;;;6.25;2.30;;;;;;;-0.58;75.39;96223.78;5077007;28;20105;-76
2023/02/03 07:22:57;;;;;;;5.45;2.13;;;;;;;-0.23;74.20;96238.25;5069493;28;20107;-76
2023/02/03 07:25:23;;;;;;;6.57;2.33;;;;;;;-0.32;74.44;96239.69;5050245;28;20072;-76
2023/02/03 07:27:48;;;;;;;5.57;2.00;;;;;;;-0.45;74.95;96239.59;5069437;28;20084;-76
2023/02/03 07:30:14;;;;;;;9.10;2.22;;;;;;;-0.32;74.17;96254.53;5071970;28;20154;-76
2023/02/03 07:32:39;;;;;;;1.75;1.60;;;;;;;0.30;72.68;96240.22;5043859;28;20492;-76
2023/02/03 07:35:05;;;;;;;4.82;1.90;;;;;;;-0.27;73.82;96251.66;5065939;28;20091;-76
2023/02/03 07:37:30;;;;;;;5.95;2.10;;;;;;;-0.43;74.42;96232.47;5077325;28;20508;-76
2023/02/03 07:39:55;;;;;;;1.73;1.52;;;;;;;-0.21;73.40;96253.88;5072656;28;20088;-76
2023/02/03 07:42:21;;;;;;;7.43;2.17;;;;;;;-0.43;74.12;96239.50;5072753;28;20076;-76
2023/02/03 07:44:46;;;;;;;6.82;1.88;;;;;;;-0.07;73.62;96232.91;5067179;28;20177;-76
2023/02/03 07:47:12;;;;;;;11.02;2.13;;;;;;;-0.39;74.21;96240.16;5074802;28;20291;-76
2023/02/03 07:49:37;;;;;;;6.75;2.20;;;;;;;-0.83;75.79;96251.44;5072191;28;20083;-76
2023/02/03 07:52:03;;;;;;;4.32;1.90;;;;;;;-0.64;75.57;96267.81;5070484;28;20084;-76
2023/02/03 07:54:28;;;;;;;5.07;2.22;;;;;;;-0.67;75.40;96260.13;5068851;28;20053;-76
2023/02/03 07:56:54;;;;;;;5.25;1.95;;;;;;;-0.65;75.27;96239.97;5070906;28;20130;-66
2023/02/03 07:59:19;;;;;;;5.70;2.15;;;;;;;-0.75;76.49;96232.66;5066833;28;20101;-66
2023/02/03 08:01:45;;;;;;;7.85;2.30;;;;;;;-0.57;75.30;96245.56;5071811;28;20082;-66
2023/02/03 08:04:15;;;;;;;6.45;2.20;;;;;;;-0.65;75.28;96248.63;5070626;28;20172;-66
2023/02/03 08:06:41;;;;;;;4.93;1.80;;;;;;;-0.72;75.91;96263.88;5064491;28;20061;-66
2023/02/03 08:09:06;;;;;;;5.20;2.22;;;;;;;-1.02;77.05;96259.47;5069719;28;20208;-66
2023/02/03 08:11:31;;;;;;;7.72;2.58;;;;;;;-1.00;77.24;96252.41;5069481;28;20060;-66
2023/02/03 08:13:57;;;;;;;7.65;2.58;;;;;;;-1.09;77.73;96242.47;5067943;28;20055;-66
2023/02/03 08:16:22;;;;;;;5.63;1.95;;;;;;;-0.73;76.99;96240.41;5069911;28;20453;-66
2023/02/03 08:18:48;;;;;;;7.65;2.65;;;;;;;-0.66;76.31;96246.13;5073366;28;20448;-66
2023/02/03 08:21:13;;;;;;;5.95;2.33;;;;;;;-0.82;77.39;96241.78;5069963;28;20078;-66
2023/02/03 08:23:39;;;;;;;6.53;2.28;;;;;;;-0.85;77.21;96236.75;5073884;28;20408;-67
2023/02/03 08:26:04;;;;;;;4.38;1.80;;;;;;;-0.59;77.26;96224.75;5071897;28;20075;-66
2023/02/03 08:28:29;;;;;;;7.47;2.85;;;;;;;-0.79;77.17;96220.69;5070841;28;20095;-66
2023/02/03 08:30:56;;;;;;;5.63;2.40;;;;;;;-1.03;78.07;96236.88;5066821;28;20064;-66
2023/02/03 08:33:22;;;;;;;5.15;2.20;;;;;;;-0.80;78.42;96213.78;5072005;28;20074;-66
2023/02/03 08:35:48;;;;;;;4.32;2.08;;;;;;;-0.79;77.99;96251.22;5067348;28;20123;-66
2023/02/03 08:38:13;;;;;;;7.20;2.50;;;;;;;-1.02;79.29;96242.97;5065246;28;20172;-66
2023/02/03 08:40:39;;;;;;;6.13;2.50;;;;;;;-1.11;81.19;96239.09;5066229;28;20088;-66
2023/02/03 08:43:04;;;;;;;5.88;2.72;;;;;;;-1.27;81.92;96232.16;5063521;28;20098;-66
2023/02/03 08:45:30;;;;;;;6.97;2.35;;;;;;;-1.10;80.87;96249.47;5067161;28;20088;-66
2023/02/03 08:47:56;;;;;;;6.35;2.75;;;;;;;-1.10;82.04;96256.47;5065636;28;20078;-66
2023/02/03 08:50:21;;;;;;;6.68;2.45;;;;;;;-1.43;83.79;96236.59;5068749;28;20412;-66
2023/02/03 08:52:47;;;;;;;9.07;2.35;;;;;;;-1.22;83.31;96245.78;5067217;28;20076;-66
2023/02/03 08:55:12;;;;;;;7.50;2.47;;;;;;;-1.45;84.89;96254.97;5068560;28;20127;-66
2023/02/03 08:57:40;;;;;;;9.25;2.95;;;;;;;-1.44;85.02;96247.94;5064436;28;20093;-66
2023/02/03 09:00:06;;;;;;;3.45;2.10;;;;;;;-1.27;84.50;96242.59;5070334;28;20335;-66
2023/02/03 09:02:31;;;;;;;7.72;2.88;;;;;;;-1.35;85.00;96263.94;5066102;28;20112;-66
2023/02/03 09:04:57;;;;;;;9.88;2.92;;;;;;;-1.53;86.92;96238.88;5065195;28;20081;-66
2023/02/03 09:07:22;;;;;;;6.13;2.65;;;;;;;-1.42;87.42;96246.09;5068205;28;20046;-66
2023/02/03 09:09:47;;;;;;;4.97;2.63;;;;;;;-1.49;87.32;96245.63;5068170;28;20036;-66
2023/02/03 09:12:13;;;;;;;7.07;3.20;;;;;;;-1.78;89.73;96233.25;5069527;28;20064;-65
2023/02/03 09:14:38;;;;;;;5.95;3.03;;;;;;;-1.60;88.82;96236.59;5066525;28;20558;-65
2023/02/03 09:17:04;;;;;;;6.53;2.90;;;;;;;-1.65;89.28;96237.78;5067507;28;20076;-65
2023/02/03 09:19:30;;;;;;;7.60;3.03;;;;;;;-1.70;90.13;96235.44;5069959;28;20055;-65
2023/02/03 09:21:56;;;;;;;10.30;3.20;;;;;;;-1.36;89.11;96227.44;5065801;28;20111;-65
2023/02/03 09:24:21;;;;;;;5.43;2.45;;;;;;;-1.17;88.05;96249.91;5067060;28;20072;-75
2023/02/03 09:26:47;;;;;;;5.88;2.50;;;;;;;-1.02;86.74;96269.91;5070916;28;20028;-74
2023/02/03 09:29:12;;;;;;;4.38;2.38;;;;;;;-1.04;86.69;96252.66;5072828;28;20303;-74
2023/02/03 09:31:37;;;;;;;7.68;2.80;;;;;;;-1.28;87.17;96230.47;5068930;28;20469;-70
2023/02/03 09:34:03;;;;;;;5.68;2.72;;;;;;;-1.39;88.94;96225.03;5068298;28;20127;-70
2023/02/03 09:36:28;;;;;;;3.75;2.67;;;;;;;-1.23;88.43;96215.38;5065590;28;20066;-70
2023/02/03 09:38:53;;;;;;;4.90;2.80;;;;;;;-1.30;88.69;96224.50;5067439;28;20062;-70
2023/02/03 09:41:50;;;;;;;7.47;3.20;;;;;;;-1.46;89.34;96237.56;5069119;28;20081;-70
2023/02/03 09:44:23;;;;;;;5.38;2.95;;;;;;;-1.46;89.86;96235.81;5063852;28;20096;-70
2023/02/03 09:46:52;;;;;;;3.85;2.60;;;;;;;-1.39;90.27;96227.66;5067357;28;20334;-69
2023/02/03 09:49:28;;;;;;;7.47;2.85;;;;;;;-1.55;90.25;96225.91;5048080;28;20089;-69
2023/02/03 09:51:54;;;;;;;5.03;2.90;;;;;;;-1.33;89.61;96224.66;5063612;28;20051;-69
2023/02/03 09:54:26;;;;;;;2.30;2.10;;;;;;;-0.95;88.34;96226.84;5070860;28;20028;-70
2023/02/03 09:56:54;;;;;;;3.42;2.10;;;;;;;-1.23;88.70;96228.44;5065716;28;20042;-69
2023/02/03 09:59:22;;;;;;;5.78;2.55;;;;;;;-1.22;88.59;96235.34;5073113;28;20168;-69
2023/02/03 10:02:08;;;;;;;4.05;2.67;;;;;;;-1.53;90.55;96247.53;5068022;28;20599;-69
2023/02/03 10:04:40;;;;;;;3.10;2.10;;;;;;;-1.39;89.87;96235.47;5064879;28;20040;-70
2023/02/03 10:07:35;;;;;;;2.50;2.10;;;;;;;-1.12;88.43;96240.03;5050252;28;20047;-70
2023/02/03 10:10:19;;;;;;;1.90;1.80;;;;;;;-1.00;88.28;96255.00;5046700;28;20107;-70
2023/02/03 10:12:57;;;;;;;4.20;2.05;;;;;;;-1.08;88.92;96257.22;5068365;28;20290;-71
2023/02/03 10:15:39;;;;;;;1.60;1.50;;;;;;;-0.85;88.25;96247.19;5068806;28;20089;-70
2023/02/03 10:18:17;;;;;;;1.80;1.70;;;;;;;-0.79;86.97;96241.63;5069543;28;20030;-71
2023/02/03 10:20:54;;;;;;;2.42;1.80;;;;;;;-0.80;87.12;96228.63;5045792;28;20515;-71
2023/02/03 10:23:39;;;;;;;1.90;1.67;;;;;;;-0.67;87.60;96265.38;5049981;28;20210;-70
2023/02/03 10:26:06;;;;;;;1.98;1.70;;;;;;;-0.99;88.55;96243.63;5064002;28;20298;-70
2023/02/03 10:28:38;;;;;;;2.20;2.00;;;;;;;-0.95;88.45;96236.44;5047339;28;20481;-70
2023/02/03 10:31:08;;;;;;;3.67;2.20;;;;;;;-1.14;89.76;96245.34;5055820;28;20236;-70
2023/02/03 10:33:34;;;;;;;2.72;2.30;;;;;;;-1.13;89.19;96247.03;5063659;28;20041;-70
2023/02/03 10:36:02;;;;;;;4.60;2.40;;;;;;;-1.18;90.08;96250.84;5066964;28;20067;-70
2023/02/03 10:38:34;;;;;;;2.90;2.10;;;;;;;-1.13;89.95;96240.94;5064040;28;20460;-70
2023/02/03 10:41:00;;;;;;;4.03;2.72;;;;;;;-1.28;90.78;96240.09;5069429;28;20081;-69
2023/02/03 10:46:10;;;;;;;3.70;2.60;;;;;;;-1.36;90.84;96223.06;5054058;28;20404;-68
2023/02/03 10:48:36;;;;;;;4.35;2.35;;;;;;;-1.31;91.38;96216.75;5068170;28;20033;-69
2023/02/03 10:51:01;;;;;;;5.95;3.08;;;;;;;-1.39;92.37;96214.59;5065315;28;20043;-68
2023/02/03 10:53:33;;;;;;;2.75;2.50;;;;;;;-1.29;92.15;96196.59;5061748;28;20033;-69
2023/02/03 10:56:06;;;;;;;5.72;2.92;;;;;;;-1.37;92.61;96200.50;5064237;28;20760;-69
2023/02/03 10:58:32;;;;;;;5.68;2.95;;;;;;;-1.34;92.98;96205.56;5065859;28;20141;-69
2023/02/03 11:01:07;;;;;;;3.88;3.10;;;;;;;-1.26;92.17;96220.75;5057688;28;20093;-69
2023/02/03 11:03:32;;;;;;;5.28;3.25;;;;;;;-1.31;92.66;96214.97;5068482;28;21840;-69
2023/02/03 11:06:16;;;;;;;3.92;2.90;;;;;;;-1.35;93.05;96216.09;5068893;28;20035;-69
2023/02/03 11:08:43;;;;;;;3.30;2.70;;;;;;;-1.16;92.47;96233.31;5080514;28;20048;-68
2023/02/03 11:11:13;;;;;;;6.50;3.10;;;;;;;-1.22;92.88;96240.56;5064996;28;20345;-69
2023/02/03 11:13:38;;;;;;;5.18;3.10;;;;;;;-1.19;92.36;96216.00;5067527;28;20035;-69
2023/02/03 11:16:17;;;;;;;4.07;2.95;;;;;;;-1.09;92.80;96218.94;5065096;28;20102;-68
2023/02/03 11:18:52;;;;;;;5.60;3.50;;;;;;;-1.39;93.52;96219.81;5068454;28;20028;-69
2023/02/03 11:21:31;;;;;;;5.15;3.20;;;;;;;-1.44;94.45;96261.84;5061789;28;20047;-68
2023/02/03 11:23:59;;;;;;;3.93;3.10;;;;;;;-1.21;93.93;96236.19;5065121;28;20054;-69
2023/02/03 11:26:27;;;;;;;3.58;2.63;;;;;;;-0.99;92.46;96220.09;5065388;28;20478;-69
2023/02/03 11:28:55;;;;;;;7.03;3.33;;;;;;;-1.10;92.18;96223.34;5065953;28;20075;-70
2023/02/03 11:31:25;;;;;;;4.00;2.65;;;;;;;-0.88;91.44;96218.66;5047500;28;20109;-69
2023/02/03 11:33:53;;;;;;;5.88;2.97;;;;;;;-1.06;92.00;96212.72;5048398;28;20567;-69
2023/02/03 11:36:18;;;;;;;3.35;3.00;;;;;;;-1.02;92.50;96214.22;5041529;28;20047;-70
2023/02/03 11:38:44;;;;;;;4.93;3.38;;;;;;;-1.25;93.89;96203.31;5070735;28;20413;-69
2023/02/03 11:41:19;;;;;;;4.85;3.20;;;;;;;-1.32;93.74;96208.06;5069496;28;20386;-69